sensor_id;sensor_type;location;lat;lon;timestamp;temperature;humidity
28654;DHT22;24320;56.980;24.336;2023-08-12T00:00:03;12.50;99.90
28654;DHT22;24320;56.980;24.336;2023-08-12T00:02:39;12.50;99.90
28654;DHT22;24320;56.980;24.336;2023-08-12T00:05:07;12.60;99.90
28654;DHT22;24320;56.980;24.336;2023-08-12T00:07:34;12.60;99.90
28654;DHT22;24320;56.980;24.336;2023-08-12T00:10:02;12.60;99.90
28654;DHT22;24320;56.980;24.336;2023-08-12T00:12:34;12.60;99.90
28654;DHT22;24320;56.980;24.336;2023-08-12T00:15:02;12.70;99.90
28654;DHT22;24320;56.980;24.336;2023-08-12T00:17:29;12.70;99.90
28654;DHT22;24320;56.980;24.336;2023-08-12T00:20:07;12.70;99.90
28654;DHT22;24320;56.980;24.336;2023-08-12T00:22:37;12.70;99.90
28654;DHT22;24320;56.980;24.336;2023-08-12T00:25:06;12.70;99.90
28654;DHT22;24320;56.980;24.336;2023-08-12T00:27:33;12.70;99.90
28654;DHT22;24320;56.980;24.336;2023-08-12T00:30:01;12.60;99.90
28654;DHT22;24320;56.980;24.336;2023-08-12T00:32:28;12.60;99.90
28654;DHT22;24320;56.980;24.336;2023-08-12T00:34:55;12.60;99.90
28654;DHT22;24320;56.980;24.336;2023-08-12T00:37:23;12.50;99.90
28654;DHT22;24320;56.980;24.336;2023-08-12T00:39:50;12.50;99.90
28654;DHT22;24320;56.980;24.336;2023-08-12T00:42:17;12.50;99.90
28654;DHT22;24320;56.980;24.336;2023-08-12T00:44:44;12.50;99.90
28654;DHT22;24320;56.980;24.336;2023-08-12T00:47:12;12.40;99.90
28654;DHT22;24320;56.980;24.336;2023-08-12T00:49:40;12.40;99.90
28654;DHT22;24320;56.980;24.336;2023-08-12T00:52:10;12.30;99.90
28654;DHT22;24320;56.980;24.336;2023-08-12T00:54:37;12.30;99.90
28654;DHT22;24320;56.980;24.336;2023-08-12T00:57:06;12.20;99.90
28654;DHT22;24320;56.980;24.336;2023-08-12T00:59:35;12.10;99.90
28654;DHT22;24320;56.980;24.336;2023-08-12T01:02:05;12.00;99.90
28654;DHT22;24320;56.980;24.336;2023-08-12T01:04:32;11.90;99.90
28654;DHT22;24320;56.980;24.336;2023-08-12T01:06:59;11.90;99.90
28654;DHT22;24320;56.980;24.336;2023-08-12T01:09:26;11.90;99.90
28654;DHT22;24320;56.980;24.336;2023-08-12T01:12:06;11.80;99.90
28654;DHT22;24320;56.980;24.336;2023-08-12T01:14:45;11.80;99.90
28654;DHT22;24320;56.980;24.336;2023-08-12T01:17:15;11.80;99.90
28654;DHT22;24320;56.980;24.336;2023-08-12T01:19:44;11.80;99.90
28654;DHT22;24320;56.980;24.336;2023-08-12T01:22:14;11.70;99.90
28654;DHT22;24320;56.980;24.336;2023-08-12T01:24:44;11.70;99.90
28654;DHT22;24320;56.980;24.336;2023-08-12T01:27:12;11.60;99.90
28654;DHT22;24320;56.980;24.336;2023-08-12T01:29:46;11.60;99.90
28654;DHT22;24320;56.980;24.336;2023-08-12T01:32:25;11.50;99.90
28654;DHT22;24320;56.980;24.336;2023-08-12T01:35:03;11.60;99.90
28654;DHT22;24320;56.980;24.336;2023-08-12T01:37:33;11.60;99.90
28654;DHT22;24320;56.980;24.336;2023-08-12T01:40:02;11.70;99.90
28654;DHT22;24320;56.980;24.336;2023-08-12T01:42:33;11.70;99.90
28654;DHT22;24320;56.980;24.336;2023-08-12T01:45:01;11.90;99.90
28654;DHT22;24320;56.980;24.336;2023-08-12T01:47:29;11.90;99.90
28654;DHT22;24320;56.980;24.336;2023-08-12T01:49:57;11.90;99.90
28654;DHT22;24320;56.980;24.336;2023-08-12T01:52:25;11.90;99.90
28654;DHT22;24320;56.980;24.336;2023-08-12T01:54:58;11.80;99.90
28654;DHT22;24320;56.980;24.336;2023-08-12T01:57:26;11.80;99.90
28654;DHT22;24320;56.980;24.336;2023-08-12T01:59:53;11.70;99.90
28654;DHT22;24320;56.980;24.336;2023-08-12T02:02:20;11.60;99.90
28654;DHT22;24320;56.980;24.336;2023-08-12T02:04:50;11.50;99.90
28654;DHT22;24320;56.980;24.336;2023-08-12T02:07:17;11.50;99.90
28654;DHT22;24320;56.980;24.336;2023-08-12T02:09:52;11.40;99.90
28654;DHT22;24320;56.980;24.336;2023-08-12T02:12:19;11.40;99.90
28654;DHT22;24320;56.980;24.336;2023-08-12T02:14:47;11.30;99.90
28654;DHT22;24320;56.980;24.336;2023-08-12T02:17:17;11.20;99.90
28654;DHT22;24320;56.980;24.336;2023-08-12T02:19:44;11.20;99.90
28654;DHT22;24320;56.980;24.336;2023-08-12T02:22:13;11.10;99.90
28654;DHT22;24320;56.980;24.336;2023-08-12T02:24:41;11.10;99.90
28654;DHT22;24320;56.980;24.336;2023-08-12T02:27:08;11.10;99.90
28654;DHT22;24320;56.980;24.336;2023-08-12T02:29:36;11.00;99.90
28654;DHT22;24320;56.980;24.336;2023-08-12T02:32:03;11.00;99.90
28654;DHT22;24320;56.980;24.336;2023-08-12T02:34:30;11.00;99.90
28654;DHT22;24320;56.980;24.336;2023-08-12T02:36:57;11.00;99.90
28654;DHT22;24320;56.980;24.336;2023-08-12T02:39:24;11.00;99.90
28654;DHT22;24320;56.980;24.336;2023-08-12T02:41:52;11.00;99.90
28654;DHT22;24320;56.980;24.336;2023-08-12T02:44:19;11.00;99.90
28654;DHT22;24320;56.980;24.336;2023-08-12T02:46:47;11.10;99.90
28654;DHT22;24320;56.980;24.336;2023-08-12T02:49:14;11.00;99.90
28654;DHT22;24320;56.980;24.336;2023-08-12T02:51:41;11.10;99.90
28654;DHT22;24320;56.980;24.336;2023-08-12T02:54:07;11.10;99.90
28654;DHT22;24320;56.980;24.336;2023-08-12T02:56:35;11.10;99.90
28654;DHT22;24320;56.980;24.336;2023-08-12T02:59:02;11.10;99.90
28654;DHT22;24320;56.980;24.336;2023-08-12T03:01:29;11.00;99.90
28654;DHT22;24320;56.980;24.336;2023-08-12T03:03:57;11.00;99.90
28654;DHT22;24320;56.980;24.336;2023-08-12T03:06:24;11.00;99.90
28654;DHT22;24320;56.980;24.336;2023-08-12T03:08:51;11.00;99.90
28654;DHT22;24320;56.980;24.336;2023-08-12T03:11:18;11.00;99.90
28654;DHT22;24320;56.980;24.336;2023-08-12T03:13:46;11.00;99.90
28654;DHT22;24320;56.980;24.336;2023-08-12T03:16:13;11.00;99.90
28654;DHT22;24320;56.980;24.336;2023-08-12T03:18:41;11.10;99.90
28654;DHT22;24320;56.980;24.336;2023-08-12T03:21:09;11.10;99.90
28654;DHT22;24320;56.980;24.336;2023-08-12T03:23:40;11.20;99.90
28654;DHT22;24320;56.980;24.336;2023-08-12T03:26:17;11.40;99.90
28654;DHT22;24320;56.980;24.336;2023-08-12T03:28:44;11.70;99.90
28654;DHT22;24320;56.980;24.336;2023-08-12T03:31:11;12.10;99.90
28654;DHT22;24320;56.980;24.336;2023-08-12T03:33:38;12.70;99.90
28654;DHT22;24320;56.980;24.336;2023-08-12T03:36:05;13.30;99.90
28654;DHT22;24320;56.980;24.336;2023-08-12T03:38:33;13.90;99.90
28654;DHT22;24320;56.980;24.336;2023-08-12T03:41:03;14.50;99.90
28654;DHT22;24320;56.980;24.336;2023-08-12T03:43:30;15.10;99.90
28654;DHT22;24320;56.980;24.336;2023-08-12T03:45:57;15.60;99.90
28654;DHT22;24320;56.980;24.336;2023-08-12T03:48:24;16.10;99.90
28654;DHT22;24320;56.980;24.336;2023-08-12T03:50:53;16.60;99.90
28654;DHT22;24320;56.980;24.336;2023-08-12T03:53:35;17.10;99.90
28654;DHT22;24320;56.980;24.336;2023-08-12T03:56:02;17.70;99.90
28654;DHT22;24320;56.980;24.336;2023-08-12T03:58:29;18.20;99.90
28654;DHT22;24320;56.980;24.336;2023-08-12T04:00:57;18.60;99.90
28654;DHT22;24320;56.980;24.336;2023-08-12T04:03:24;18.90;99.90
28654;DHT22;24320;56.980;24.336;2023-08-12T04:05:54;19.20;99.90
28654;DHT22;24320;56.980;24.336;2023-08-12T04:08:22;19.60;99.90
28654;DHT22;24320;56.980;24.336;2023-08-12T04:10:51;19.90;99.90
28654;DHT22;24320;56.980;24.336;2023-08-12T04:13:18;20.20;99.90
28654;DHT22;24320;56.980;24.336;2023-08-12T04:15:50;20.40;99.90
28654;DHT22;24320;56.980;24.336;2023-08-12T04:18:17;20.70;99.90
28654;DHT22;24320;56.980;24.336;2023-08-12T04:20:51;20.90;99.90
28654;DHT22;24320;56.980;24.336;2023-08-12T04:23:19;21.20;99.90
28654;DHT22;24320;56.980;24.336;2023-08-12T04:25:47;21.40;99.90
28654;DHT22;24320;56.980;24.336;2023-08-12T04:28:15;21.60;99.90
28654;DHT22;24320;56.980;24.336;2023-08-12T04:30:43;21.80;99.90
28654;DHT22;24320;56.980;24.336;2023-08-12T04:33:11;22.10;99.90
28654;DHT22;24320;56.980;24.336;2023-08-12T04:35:39;22.40;99.90
28654;DHT22;24320;56.980;24.336;2023-08-12T04:38:07;22.70;99.90
28654;DHT22;24320;56.980;24.336;2023-08-12T04:40:34;22.90;99.90
28654;DHT22;24320;56.980;24.336;2023-08-12T04:43:01;22.90;99.90
28654;DHT22;24320;56.980;24.336;2023-08-12T04:45:28;23.00;99.90
28654;DHT22;24320;56.980;24.336;2023-08-12T04:47:57;23.30;99.90
28654;DHT22;24320;56.980;24.336;2023-08-12T04:50:24;23.70;99.90
28654;DHT22;24320;56.980;24.336;2023-08-12T04:53:09;23.80;99.90
28654;DHT22;24320;56.980;24.336;2023-08-12T04:55:36;23.90;99.90
28654;DHT22;24320;56.980;24.336;2023-08-12T04:58:03;24.00;99.90
28654;DHT22;24320;56.980;24.336;2023-08-12T05:00:31;24.00;99.90
28654;DHT22;24320;56.980;24.336;2023-08-12T05:02:59;24.20;99.90
28654;DHT22;24320;56.980;24.336;2023-08-12T05:05:26;24.50;99.90
28654;DHT22;24320;56.980;24.336;2023-08-12T05:07:54;24.50;99.90
28654;DHT22;24320;56.980;24.336;2023-08-12T05:10:21;24.40;99.90
28654;DHT22;24320;56.980;24.336;2023-08-12T05:12:48;24.30;99.90
28654;DHT22;24320;56.980;24.336;2023-08-12T05:15:17;24.00;99.90
28654;DHT22;24320;56.980;24.336;2023-08-12T05:17:44;24.00;99.90
28654;DHT22;24320;56.980;24.336;2023-08-12T05:20:11;24.30;99.90
28654;DHT22;24320;56.980;24.336;2023-08-12T05:22:38;24.50;99.90
28654;DHT22;24320;56.980;24.336;2023-08-12T05:25:05;24.40;99.90
28654;DHT22;24320;56.980;24.336;2023-08-12T05:27:33;24.70;99.90
28654;DHT22;24320;56.980;24.336;2023-08-12T05:30:00;25.00;99.90
28654;DHT22;24320;56.980;24.336;2023-08-12T05:32:27;25.30;99.90
28654;DHT22;24320;56.980;24.336;2023-08-12T05:34:55;25.40;99.90
28654;DHT22;24320;56.980;24.336;2023-08-12T05:37:22;25.20;99.90
28654;DHT22;24320;56.980;24.336;2023-08-12T05:39:49;25.20;99.90
28654;DHT22;24320;56.980;24.336;2023-08-12T05:42:16;25.20;99.90
28654;DHT22;24320;56.980;24.336;2023-08-12T05:44:43;25.30;99.90
28654;DHT22;24320;56.980;24.336;2023-08-12T05:47:10;25.40;99.90
28654;DHT22;24320;56.980;24.336;2023-08-12T05:49:37;25.60;99.90
28654;DHT22;24320;56.980;24.336;2023-08-12T05:52:04;25.90;99.90
28654;DHT22;24320;56.980;24.336;2023-08-12T05:54:31;26.10;99.90
28654;DHT22;24320;56.980;24.336;2023-08-12T05:56:59;26.30;99.60
28654;DHT22;24320;56.980;24.336;2023-08-12T05:59:26;26.30;98.80
28654;DHT22;24320;56.980;24.336;2023-08-12T06:01:54;26.20;98.30
28654;DHT22;24320;56.980;24.336;2023-08-12T06:04:21;26.40;98.00
28654;DHT22;24320;56.980;24.336;2023-08-12T06:06:48;26.40;98.20
28654;DHT22;24320;56.980;24.336;2023-08-12T06:09:15;26.40;97.10
28654;DHT22;24320;56.980;24.336;2023-08-12T06:11:42;26.20;98.80
28654;DHT22;24320;56.980;24.336;2023-08-12T06:14:09;26.10;97.30
28654;DHT22;24320;56.980;24.336;2023-08-12T06:16:41;25.70;98.40
28654;DHT22;24320;56.980;24.336;2023-08-12T06:19:25;25.50;97.60
28654;DHT22;24320;56.980;24.336;2023-08-12T06:21:52;25.10;97.90
28654;DHT22;24320;56.980;24.336;2023-08-12T06:24:19;24.80;98.20
28654;DHT22;24320;56.980;24.336;2023-08-12T06:26:46;24.50;98.70
28654;DHT22;24320;56.980;24.336;2023-08-12T06:29:13;24.40;97.80
28654;DHT22;24320;56.980;24.336;2023-08-12T06:31:40;24.30;99.00
28654;DHT22;24320;56.980;24.336;2023-08-12T06:34:07;24.20;98.00
28654;DHT22;24320;56.980;24.336;2023-08-12T06:36:34;24.20;98.60
28654;DHT22;24320;56.980;24.336;2023-08-12T06:39:02;24.20;98.80
28654;DHT22;24320;56.980;24.336;2023-08-12T06:41:30;24.00;99.60
28654;DHT22;24320;56.980;24.336;2023-08-12T06:43:57;23.80;97.20
28654;DHT22;24320;56.980;24.336;2023-08-12T06:46:24;23.40;99.90
28654;DHT22;24320;56.980;24.336;2023-08-12T06:48:51;23.30;99.90
28654;DHT22;24320;56.980;24.336;2023-08-12T06:51:18;23.50;99.70
28654;DHT22;24320;56.980;24.336;2023-08-12T06:53:46;23.40;99.30
28654;DHT22;24320;56.980;24.336;2023-08-12T06:56:13;23.50;99.70
28654;DHT22;24320;56.980;24.336;2023-08-12T06:58:40;23.40;99.20
28654;DHT22;24320;56.980;24.336;2023-08-12T07:01:07;23.30;99.10
28654;DHT22;24320;56.980;24.336;2023-08-12T07:03:34;23.40;99.40
28654;DHT22;24320;56.980;24.336;2023-08-12T07:06:01;23.70;98.80
28654;DHT22;24320;56.980;24.336;2023-08-12T07:08:28;24.00;96.80
28654;DHT22;24320;56.980;24.336;2023-08-12T07:10:55;23.90;96.80
28654;DHT22;24320;56.980;24.336;2023-08-12T07:13:23;24.00;97.00
28654;DHT22;24320;56.980;24.336;2023-08-12T07:15:50;24.30;99.90
28654;DHT22;24320;56.980;24.336;2023-08-12T07:18:17;24.60;97.80
28654;DHT22;24320;56.980;24.336;2023-08-12T07:20:45;24.40;96.80
28654;DHT22;24320;56.980;24.336;2023-08-12T07:23:13;24.40;98.30
28654;DHT22;24320;56.980;24.336;2023-08-12T07:25:47;24.60;97.00
28654;DHT22;24320;56.980;24.336;2023-08-12T07:28:14;25.00;95.80
28654;DHT22;24320;56.980;24.336;2023-08-12T07:30:41;25.40;94.30
28654;DHT22;24320;56.980;24.336;2023-08-12T07:33:09;25.50;93.90
28654;DHT22;24320;56.980;24.336;2023-08-12T07:35:36;25.30;94.20
28654;DHT22;24320;56.980;24.336;2023-08-12T07:38:04;25.10;94.70
28654;DHT22;24320;56.980;24.336;2023-08-12T07:40:34;24.90;94.20
28654;DHT22;24320;56.980;24.336;2023-08-12T07:43:07;24.90;96.50
28654;DHT22;24320;56.980;24.336;2023-08-12T07:45:34;25.20;95.30
28654;DHT22;24320;56.980;24.336;2023-08-12T07:48:01;25.70;95.40
28654;DHT22;24320;56.980;24.336;2023-08-12T07:50:29;26.10;94.90
28654;DHT22;24320;56.980;24.336;2023-08-12T07:52:56;26.40;96.10
28654;DHT22;24320;56.980;24.336;2023-08-12T07:55:23;26.30;93.50
28654;DHT22;24320;56.980;24.336;2023-08-12T07:57:53;25.80;94.70
28654;DHT22;24320;56.980;24.336;2023-08-12T08:00:20;25.40;94.00
28654;DHT22;24320;56.980;24.336;2023-08-12T08:03:04;24.80;95.70
28654;DHT22;24320;56.980;24.336;2023-08-12T08:05:31;24.60;95.90
28654;DHT22;24320;56.980;24.336;2023-08-12T08:07:58;24.80;95.00
28654;DHT22;24320;56.980;24.336;2023-08-12T08:10:26;24.70;96.60
28654;DHT22;24320;56.980;24.336;2023-08-12T08:12:53;24.70;96.90
28654;DHT22;24320;56.980;24.336;2023-08-12T08:15:20;24.60;96.10
28654;DHT22;24320;56.980;24.336;2023-08-12T08:17:47;24.40;96.60
28654;DHT22;24320;56.980;24.336;2023-08-12T08:20:14;23.90;95.90
28654;DHT22;24320;56.980;24.336;2023-08-12T08:22:41;23.60;98.10
28654;DHT22;24320;56.980;24.336;2023-08-12T08:25:08;23.60;98.80
28654;DHT22;24320;56.980;24.336;2023-08-12T08:27:35;23.80;97.40
28654;DHT22;24320;56.980;24.336;2023-08-12T08:30:02;24.00;99.10
28654;DHT22;24320;56.980;24.336;2023-08-12T08:32:30;24.40;98.90
28654;DHT22;24320;56.980;24.336;2023-08-12T08:34:57;24.70;96.90
28654;DHT22;24320;56.980;24.336;2023-08-12T08:37:26;24.60;97.10
28654;DHT22;24320;56.980;24.336;2023-08-12T08:39:56;24.40;93.80
28654;DHT22;24320;56.980;24.336;2023-08-12T08:42:48;24.20;96.50
28654;DHT22;24320;56.980;24.336;2023-08-12T08:45:18;24.00;94.30
28654;DHT22;24320;56.980;24.336;2023-08-12T08:47:48;23.90;97.60
28654;DHT22;24320;56.980;24.336;2023-08-12T08:50:16;24.00;95.10
28654;DHT22;24320;56.980;24.336;2023-08-12T08:52:44;23.90;94.10
28654;DHT22;24320;56.980;24.336;2023-08-12T08:55:12;23.80;93.60
28654;DHT22;24320;56.980;24.336;2023-08-12T08:57:40;23.70;95.50
28654;DHT22;24320;56.980;24.336;2023-08-12T09:00:17;23.60;94.50
28654;DHT22;24320;56.980;24.336;2023-08-12T09:02:46;23.50;92.90
28654;DHT22;24320;56.980;24.336;2023-08-12T09:05:15;23.40;94.40
28654;DHT22;24320;56.980;24.336;2023-08-12T09:07:43;23.30;93.40
28654;DHT22;24320;56.980;24.336;2023-08-12T09:10:17;23.30;95.80
28654;DHT22;24320;56.980;24.336;2023-08-12T09:12:47;23.40;96.70
28654;DHT22;24320;56.980;24.336;2023-08-12T09:15:16;23.60;96.90
28654;DHT22;24320;56.980;24.336;2023-08-12T09:17:44;23.70;94.80
28654;DHT22;24320;56.980;24.336;2023-08-12T09:20:11;23.70;96.60
28654;DHT22;24320;56.980;24.336;2023-08-12T09:22:42;23.80;93.90
28654;DHT22;24320;56.980;24.336;2023-08-12T09:25:10;23.60;91.90
28654;DHT22;24320;56.980;24.336;2023-08-12T09:27:37;23.50;93.90
28654;DHT22;24320;56.980;24.336;2023-08-12T09:30:06;23.40;94.30
28654;DHT22;24320;56.980;24.336;2023-08-12T09:32:34;23.40;94.60
28654;DHT22;24320;56.980;24.336;2023-08-12T09:35:02;23.40;93.10
28654;DHT22;24320;56.980;24.336;2023-08-12T09:37:30;23.30;94.00
28654;DHT22;24320;56.980;24.336;2023-08-12T09:39:57;23.20;95.10
28654;DHT22;24320;56.980;24.336;2023-08-12T09:42:25;23.10;95.20
28654;DHT22;24320;56.980;24.336;2023-08-12T09:44:52;23.00;94.50
28654;DHT22;24320;56.980;24.336;2023-08-12T09:47:19;22.80;94.00
28654;DHT22;24320;56.980;24.336;2023-08-12T09:49:46;22.60;94.60
28654;DHT22;24320;56.980;24.336;2023-08-12T09:52:14;22.50;94.90
28654;DHT22;24320;56.980;24.336;2023-08-12T09:54:41;22.50;95.70
28654;DHT22;24320;56.980;24.336;2023-08-12T09:57:10;22.50;92.90
28654;DHT22;24320;56.980;24.336;2023-08-12T09:59:41;22.40;94.80
28654;DHT22;24320;56.980;24.336;2023-08-12T10:02:14;22.40;93.60
28654;DHT22;24320;56.980;24.336;2023-08-12T10:04:45;22.40;96.80
28654;DHT22;24320;56.980;24.336;2023-08-12T10:07:13;22.40;92.70
28654;DHT22;24320;56.980;24.336;2023-08-12T10:09:41;22.30;93.00
28654;DHT22;24320;56.980;24.336;2023-08-12T10:12:10;22.20;94.80
28654;DHT22;24320;56.980;24.336;2023-08-12T10:14:39;22.20;95.10
28654;DHT22;24320;56.980;24.336;2023-08-12T10:17:06;22.30;94.70
28654;DHT22;24320;56.980;24.336;2023-08-12T10:19:36;22.40;96.00
28654;DHT22;24320;56.980;24.336;2023-08-12T10:22:04;22.50;94.10
28654;DHT22;24320;56.980;24.336;2023-08-12T10:24:33;22.60;95.20
28654;DHT22;24320;56.980;24.336;2023-08-12T10:27:01;22.60;94.50
28654;DHT22;24320;56.980;24.336;2023-08-12T10:29:29;22.70;92.40
28654;DHT22;24320;56.980;24.336;2023-08-12T10:31:57;22.70;94.00
28654;DHT22;24320;56.980;24.336;2023-08-12T10:34:25;22.60;94.30
28654;DHT22;24320;56.980;24.336;2023-08-12T10:36:56;22.50;94.70
28654;DHT22;24320;56.980;24.336;2023-08-12T10:39:31;22.50;93.60
28654;DHT22;24320;56.980;24.336;2023-08-12T10:41:59;22.50;94.80
28654;DHT22;24320;56.980;24.336;2023-08-12T10:44:40;22.50;92.30
28654;DHT22;24320;56.980;24.336;2023-08-12T10:47:08;22.40;94.80
28654;DHT22;24320;56.980;24.336;2023-08-12T10:49:47;22.40;94.70
28654;DHT22;24320;56.980;24.336;2023-08-12T10:52:32;22.30;94.60
28654;DHT22;24320;56.980;24.336;2023-08-12T10:55:19;22.30;93.60
28654;DHT22;24320;56.980;24.336;2023-08-12T10:57:52;22.20;92.10
28654;DHT22;24320;56.980;24.336;2023-08-12T11:00:26;22.10;94.20
28654;DHT22;24320;56.980;24.336;2023-08-12T11:05:45;22.10;92.60
28654;DHT22;24320;56.980;24.336;2023-08-12T11:08:13;22.10;91.30
28654;DHT22;24320;56.980;24.336;2023-08-12T11:10:41;21.90;92.10
28654;DHT22;24320;56.980;24.336;2023-08-12T11:13:14;21.70;93.20
28654;DHT22;24320;56.980;24.336;2023-08-12T11:15:47;21.70;95.30
28654;DHT22;24320;56.980;24.336;2023-08-12T11:18:17;21.80;94.40
28654;DHT22;24320;56.980;24.336;2023-08-12T11:20:45;21.80;93.60
28654;DHT22;24320;56.980;24.336;2023-08-12T11:23:14;21.80;91.90
28654;DHT22;24320;56.980;24.336;2023-08-12T11:25:43;21.80;90.50
28654;DHT22;24320;56.980;24.336;2023-08-12T11:28:11;21.60;91.70
28654;DHT22;24320;56.980;24.336;2023-08-12T11:30:41;21.60;92.50
28654;DHT22;24320;56.980;24.336;2023-08-12T11:33:09;21.50;94.60
28654;DHT22;24320;56.980;24.336;2023-08-12T11:35:37;21.50;95.70
28654;DHT22;24320;56.980;24.336;2023-08-12T11:38:06;21.70;95.70
28654;DHT22;24320;56.980;24.336;2023-08-12T11:40:34;21.80;95.80
28654;DHT22;24320;56.980;24.336;2023-08-12T11:43:02;21.90;94.30
28654;DHT22;24320;56.980;24.336;2023-08-12T11:45:32;21.90;93.40
28654;DHT22;24320;56.980;24.336;2023-08-12T11:48:00;21.80;93.30
28654;DHT22;24320;56.980;24.336;2023-08-12T11:50:27;21.80;95.00
28654;DHT22;24320;56.980;24.336;2023-08-12T11:52:56;21.80;95.80
28654;DHT22;24320;56.980;24.336;2023-08-12T11:55:23;21.80;95.70
28654;DHT22;24320;56.980;24.336;2023-08-12T11:57:51;21.80;94.20
28654;DHT22;24320;56.980;24.336;2023-08-12T12:00:19;21.80;94.10
28654;DHT22;24320;56.980;24.336;2023-08-12T12:02:55;21.80;94.00
28654;DHT22;24320;56.980;24.336;2023-08-12T12:05:26;21.80;94.70
28654;DHT22;24320;56.980;24.336;2023-08-12T12:07:54;21.70;94.00
28654;DHT22;24320;56.980;24.336;2023-08-12T12:13:00;21.60;93.90
28654;DHT22;24320;56.980;24.336;2023-08-12T12:15:27;21.40;95.40
28654;DHT22;24320;56.980;24.336;2023-08-12T12:17:54;21.40;93.90
28654;DHT22;24320;56.980;24.336;2023-08-12T12:20:21;21.40;94.70
28654;DHT22;24320;56.980;24.336;2023-08-12T12:22:48;21.50;95.10
28654;DHT22;24320;56.980;24.336;2023-08-12T12:25:16;21.50;94.70
28654;DHT22;24320;56.980;24.336;2023-08-12T12:27:46;21.30;94.20
28654;DHT22;24320;56.980;24.336;2023-08-12T12:30:15;21.30;96.20
28654;DHT22;24320;56.980;24.336;2023-08-12T12:32:42;21.40;96.80
28654;DHT22;24320;56.980;24.336;2023-08-12T12:35:10;21.50;97.50
28654;DHT22;24320;56.980;24.336;2023-08-12T12:37:37;21.70;96.40
28654;DHT22;24320;56.980;24.336;2023-08-12T12:40:05;21.80;97.10
28654;DHT22;24320;56.980;24.336;2023-08-12T12:42:32;21.80;96.00
28654;DHT22;24320;56.980;24.336;2023-08-12T12:44:59;21.80;93.80
28654;DHT22;24320;56.980;24.336;2023-08-12T12:47:26;21.60;94.40
28654;DHT22;24320;56.980;24.336;2023-08-12T12:49:53;21.50;94.60
28654;DHT22;24320;56.980;24.336;2023-08-12T12:52:20;21.50;95.00
28654;DHT22;24320;56.980;24.336;2023-08-12T12:54:47;21.40;94.40
28654;DHT22;24320;56.980;24.336;2023-08-12T12:57:14;21.40;94.60
28654;DHT22;24320;56.980;24.336;2023-08-12T12:59:41;21.20;96.10
28654;DHT22;24320;56.980;24.336;2023-08-12T13:02:08;21.30;95.30
28654;DHT22;24320;56.980;24.336;2023-08-12T13:04:35;21.30;95.90
28654;DHT22;24320;56.980;24.336;2023-08-12T13:07:02;21.40;95.60
28654;DHT22;24320;56.980;24.336;2023-08-12T13:09:29;21.40;95.70
28654;DHT22;24320;56.980;24.336;2023-08-12T13:11:58;21.30;96.40
28654;DHT22;24320;56.980;24.336;2023-08-12T13:14:25;21.30;97.00
28654;DHT22;24320;56.980;24.336;2023-08-12T13:16:52;21.40;97.80
28654;DHT22;24320;56.980;24.336;2023-08-12T13:19:19;21.50;95.30
28654;DHT22;24320;56.980;24.336;2023-08-12T13:21:46;21.50;96.20
28654;DHT22;24320;56.980;24.336;2023-08-12T13:24:13;21.50;97.10
28654;DHT22;24320;56.980;24.336;2023-08-12T13:26:40;21.50;96.20
28654;DHT22;24320;56.980;24.336;2023-08-12T13:29:07;21.40;97.50
28654;DHT22;24320;56.980;24.336;2023-08-12T13:31:34;21.40;97.50
28654;DHT22;24320;56.980;24.336;2023-08-12T13:34:01;21.50;97.00
28654;DHT22;24320;56.980;24.336;2023-08-12T13:36:29;21.70;97.00
28654;DHT22;24320;56.980;24.336;2023-08-12T13:38:57;21.80;96.30
28654;DHT22;24320;56.980;24.336;2023-08-12T13:41:26;21.80;95.60
28654;DHT22;24320;56.980;24.336;2023-08-12T13:43:53;21.60;95.90
28654;DHT22;24320;56.980;24.336;2023-08-12T13:46:20;21.50;95.90
28654;DHT22;24320;56.980;24.336;2023-08-12T13:48:47;21.40;96.70
28654;DHT22;24320;56.980;24.336;2023-08-12T13:51:14;21.30;96.60
28654;DHT22;24320;56.980;24.336;2023-08-12T13:53:41;21.30;97.00
28654;DHT22;24320;56.980;24.336;2023-08-12T13:56:09;21.40;96.80
28654;DHT22;24320;56.980;24.336;2023-08-12T13:58:36;21.30;96.60
28654;DHT22;24320;56.980;24.336;2023-08-12T14:01:03;21.20;96.50
28654;DHT22;24320;56.980;24.336;2023-08-12T14:03:30;21.20;97.20
28654;DHT22;24320;56.980;24.336;2023-08-12T14:05:57;21.20;96.80
28654;DHT22;24320;56.980;24.336;2023-08-12T14:08:24;21.10;96.60
28654;DHT22;24320;56.980;24.336;2023-08-12T14:10:51;21.00;96.90
28654;DHT22;24320;56.980;24.336;2023-08-12T14:13:18;21.00;97.20
28654;DHT22;24320;56.980;24.336;2023-08-12T14:15:45;21.00;97.50
28654;DHT22;24320;56.980;24.336;2023-08-12T14:18:12;21.00;97.20
28654;DHT22;24320;56.980;24.336;2023-08-12T14:20:39;21.00;97.50
28654;DHT22;24320;56.980;24.336;2023-08-12T14:23:06;21.00;96.70
28654;DHT22;24320;56.980;24.336;2023-08-12T14:25:35;20.90;97.10
28654;DHT22;24320;56.980;24.336;2023-08-12T14:28:02;20.90;97.30
28654;DHT22;24320;56.980;24.336;2023-08-12T14:30:29;20.90;97.40
28654;DHT22;24320;56.980;24.336;2023-08-12T14:33:03;20.90;97.60
28654;DHT22;24320;56.980;24.336;2023-08-12T14:35:30;20.80;97.60
28654;DHT22;24320;56.980;24.336;2023-08-12T14:37:57;20.70;97.60
28654;DHT22;24320;56.980;24.336;2023-08-12T14:40:25;20.70;97.60
28654;DHT22;24320;56.980;24.336;2023-08-12T14:42:51;20.80;97.90
28654;DHT22;24320;56.980;24.336;2023-08-12T14:45:19;20.80;97.80
28654;DHT22;24320;56.980;24.336;2023-08-12T14:47:46;20.80;98.40
28654;DHT22;24320;56.980;24.336;2023-08-12T14:50:13;20.80;97.40
28654;DHT22;24320;56.980;24.336;2023-08-12T14:52:40;20.80;97.90
28654;DHT22;24320;56.980;24.336;2023-08-12T14:55:07;20.80;97.50
28654;DHT22;24320;56.980;24.336;2023-08-12T14:57:34;20.80;97.60
28654;DHT22;24320;56.980;24.336;2023-08-12T15:00:02;20.80;97.50
28654;DHT22;24320;56.980;24.336;2023-08-12T15:02:29;20.80;97.60
28654;DHT22;24320;56.980;24.336;2023-08-12T15:05:00;20.80;97.50
28654;DHT22;24320;56.980;24.336;2023-08-12T15:07:27;20.70;98.10
28654;DHT22;24320;56.980;24.336;2023-08-12T15:09:55;20.70;97.60
28654;DHT22;24320;56.980;24.336;2023-08-12T15:12:25;20.70;97.90
28654;DHT22;24320;56.980;24.336;2023-08-12T15:14:54;20.70;98.00
28654;DHT22;24320;56.980;24.336;2023-08-12T15:17:21;20.60;98.60
28654;DHT22;24320;56.980;24.336;2023-08-12T15:19:48;20.70;98.40
28654;DHT22;24320;56.980;24.336;2023-08-12T15:22:15;20.80;98.40
28654;DHT22;24320;56.980;24.336;2023-08-12T15:24:42;20.70;97.30
28654;DHT22;24320;56.980;24.336;2023-08-12T15:27:09;20.70;97.60